createdAt,value
2023-01-03T00:01:19.909Z,99.90
2023-01-03T00:03:47.353Z,99.90
2023-01-03T00:06:32.226Z,99.90
2023-01-03T00:09:01.106Z,99.90
2023-01-03T00:11:48.974Z,99.90
2023-01-03T00:14:25.823Z,99.90
2023-01-03T00:16:55.621Z,99.90
2023-01-03T00:19:23.601Z,99.90
2023-01-03T00:21:50.858Z,99.90
2023-01-03T00:24:17.801Z,99.90
2023-01-03T00:26:45.048Z,99.90
2023-01-03T00:29:12.403Z,99.90
2023-01-03T00:31:39.913Z,99.90
2023-01-03T00:34:07.684Z,99.90
2023-01-03T00:36:35.316Z,99.90
2023-01-03T00:39:02.483Z,99.90
2023-01-03T00:41:30.325Z,99.90
2023-01-03T00:43:57.457Z,99.90
2023-01-03T00:46:24.584Z,99.90
2023-01-03T00:48:51.506Z,99.90
2023-01-03T00:51:24.375Z,99.90
2023-01-03T00:53:55.820Z,99.90
2023-01-03T00:56:25.438Z,99.90
2023-01-03T00:58:53.403Z,99.90
2023-01-03T01:01:21.648Z,99.90
2023-01-03T01:03:51.813Z,99.90
2023-01-03T01:06:18.586Z,99.90
2023-01-03T01:08:47.014Z,99.90
2023-01-03T01:11:14.831Z,99.90
2023-01-03T01:13:43.190Z,99.90
2023-01-03T01:16:15.771Z,99.90
2023-01-03T01:18:44.948Z,99.90
2023-01-03T01:21:19.704Z,99.90
2023-01-03T01:23:47.438Z,99.90
2023-01-03T01:26:17.028Z,99.90
2023-01-03T01:28:44.036Z,99.90
2023-01-03T01:31:13.407Z,99.90
2023-01-03T01:33:40.216Z,99.90
2023-01-03T01:36:17.715Z,99.90
2023-01-03T01:38:45.591Z,99.90
2023-01-03T01:41:14.683Z,99.90
2023-01-03T01:44:18.284Z,99.90
2023-01-03T01:46:45.039Z,99.90
2023-01-03T01:49:18.518Z,99.90
2023-01-03T01:51:45.375Z,99.90
2023-01-03T01:54:12.555Z,99.90
2023-01-03T01:56:48.955Z,99.90
2023-01-03T01:59:16.110Z,99.90
2023-01-03T02:01:45.874Z,99.90
2023-01-03T02:04:21.764Z,99.90
2023-01-03T02:06:49.083Z,99.90
2023-01-03T02:09:16.407Z,99.90
2023-01-03T02:12:16.285Z,99.90
2023-01-03T02:15:15.423Z,99.90
2023-01-03T02:17:58.895Z,99.90
2023-01-03T02:21:18.235Z,99.90
2023-01-03T02:24:07.035Z,99.90
2023-01-03T02:26:44.779Z,99.90
2023-01-03T02:29:38.296Z,99.90
2023-01-03T02:32:10.455Z,99.90
2023-01-03T02:35:02.028Z,99.90
2023-01-03T02:37:34.645Z,99.90
2023-01-03T02:40:31.776Z,99.90
2023-01-03T02:43:12.697Z,99.90
2023-01-03T02:46:01.773Z,99.90
2023-01-03T02:48:56.288Z,99.90
2023-01-03T02:51:57.576Z,99.90
2023-01-03T02:54:41.999Z,99.90
2023-01-03T02:57:16.034Z,99.90
2023-01-03T02:59:49.641Z,99.90
2023-01-03T03:02:18.274Z,99.90
2023-01-03T03:04:48.024Z,99.90
2023-01-03T03:07:19.562Z,99.90
2023-01-03T03:10:05.182Z,99.90
2023-01-03T03:12:53.307Z,99.90
2023-01-03T03:15:22.894Z,99.90
2023-01-03T03:17:54.234Z,99.90
2023-01-03T03:20:39.469Z,99.90
2023-01-03T03:23:34.121Z,99.90
2023-01-03T03:26:31.453Z,99.90
2023-01-03T03:29:03.781Z,99.90
2023-01-03T03:31:43.285Z,99.90
2023-01-03T03:34:19.031Z,99.90
2023-01-03T03:37:05.187Z,99.90
2023-01-03T03:39:51.719Z,99.90
2023-01-03T03:42:55.681Z,99.90
2023-01-03T03:45:25.495Z,99.90
2023-01-03T03:48:07.680Z,99.90
2023-01-03T03:50:45.730Z,99.90
2023-01-03T03:53:16.368Z,99.90
2023-01-03T03:55:53.767Z,99.90
2023-01-03T03:58:23.705Z,99.90
2023-01-03T04:00:52.617Z,99.90
2023-01-03T04:03:21.757Z,99.90
2023-01-03T04:06:00.489Z,99.90
2023-01-03T04:08:27.297Z,99.90
2023-01-03T04:11:05.485Z,99.90
2023-01-03T04:13:37.237Z,99.90
2023-01-03T04:16:05.249Z,99.90
2023-01-03T04:18:32.272Z,99.90
2023-01-03T04:20:59.252Z,99.90
2023-01-03T04:23:26.169Z,99.90
2023-01-03T04:25:53.201Z,99.90
2023-01-03T04:28:20.151Z,99.90
2023-01-03T04:30:47.361Z,99.90
2023-01-03T04:33:14.291Z,99.90
2023-01-03T04:35:41.159Z,99.90
2023-01-03T04:38:09.254Z,99.90
2023-01-03T04:40:38.511Z,99.90
2023-01-03T04:43:24.552Z,99.90
2023-01-03T04:45:51.988Z,99.90
2023-01-03T04:48:19.011Z,99.90
2023-01-03T04:50:55.480Z,99.90
2023-01-03T04:53:23.980Z,99.90
2023-01-03T04:55:52.590Z,99.90
2023-01-03T04:58:19.957Z,99.90
2023-01-03T05:00:46.880Z,99.90
2023-01-03T05:03:13.869Z,99.90
2023-01-03T05:05:40.920Z,99.90
2023-01-03T05:08:08.798Z,99.90
2023-01-03T05:10:38.021Z,99.90
2023-01-03T05:13:05.601Z,99.90
2023-01-03T05:15:39.182Z,99.90
2023-01-03T05:18:06.482Z,99.90
2023-01-03T05:20:54.950Z,99.90
2023-01-03T05:23:40.406Z,99.90
2023-01-03T05:26:19.171Z,99.90
2023-01-03T05:28:49.730Z,99.90
2023-01-03T05:31:16.547Z,99.90
2023-01-03T05:36:24.160Z,99.90
2023-01-03T05:38:51.042Z,99.90
2023-01-03T05:41:37.871Z,99.90
2023-01-03T05:44:04.976Z,99.90
2023-01-03T05:46:31.932Z,99.90
2023-01-03T05:48:59.024Z,99.90
2023-01-03T05:51:25.748Z,99.90
2023-01-03T05:53:52.631Z,99.90
2023-01-03T05:56:19.572Z,99.90
2023-01-03T05:58:46.839Z,99.90
2023-01-03T06:01:14.869Z,99.90
2023-01-03T06:03:46.573Z,99.90
2023-01-03T06:06:15.128Z,99.90
2023-01-03T06:08:42.061Z,99.90
2023-01-03T06:11:12.014Z,99.90
2023-01-03T06:13:39.939Z,99.90
2023-01-03T06:16:28.553Z,99.90
2023-01-03T06:18:55.670Z,99.90
2023-01-03T06:21:22.583Z,99.90
2023-01-03T06:23:49.387Z,99.90
2023-01-03T06:26:18.242Z,99.90
2023-01-03T06:28:46.098Z,99.90
2023-01-03T06:31:14.727Z,99.90
2023-01-03T06:33:42.001Z,99.90
2023-01-03T06:36:21.034Z,99.90
2023-01-03T06:38:47.793Z,99.90
2023-01-03T06:41:15.964Z,99.90
2023-01-03T06:43:43.224Z,99.90
2023-01-03T06:46:30.629Z,99.90
2023-01-03T06:49:16.988Z,99.90
2023-01-03T06:52:04.814Z,99.90
2023-01-03T06:54:34.333Z,99.90
2023-01-03T06:57:01.413Z,99.90
2023-01-03T06:59:28.300Z,99.90
2023-01-03T07:01:55.955Z,99.90
2023-01-03T07:04:24.855Z,99.90
2023-01-03T07:06:51.903Z,99.90
2023-01-03T07:09:18.658Z,99.90
2023-01-03T07:11:45.941Z,99.90
2023-01-03T07:14:13.183Z,99.90
2023-01-03T07:16:41.488Z,99.90
2023-01-03T07:19:10.497Z,99.90
2023-01-03T07:21:38.016Z,99.90
2023-01-03T07:24:07.081Z,99.90
2023-01-03T07:26:35.056Z,99.90
2023-01-03T07:29:07.996Z,99.90
2023-01-03T07:31:35.451Z,99.90
2023-01-03T07:34:02.300Z,99.90
2023-01-03T07:36:29.215Z,99.90
2023-01-03T07:38:56.152Z,99.90
2023-01-03T07:41:43.578Z,99.90
2023-01-03T07:45:01.578Z,99.90
2023-01-03T07:47:30.550Z,99.90
2023-01-03T07:49:57.233Z,99.90
2023-01-03T07:52:24.036Z,99.90
2023-01-03T07:54:50.777Z,99.90
2023-01-03T07:57:17.501Z,99.90
2023-01-03T07:59:44.725Z,99.90
2023-01-03T08:02:11.843Z,99.90
2023-01-03T08:04:38.778Z,99.90
2023-01-03T08:07:05.608Z,99.90
2023-01-03T08:09:51.114Z,99.90
2023-01-03T08:12:36.725Z,99.90
2023-01-03T08:15:03.858Z,99.90
2023-01-03T08:17:30.579Z,99.90
2023-01-03T08:19:57.412Z,99.90
2023-01-03T08:22:24.204Z,99.90
2023-01-03T08:24:50.897Z,99.90
2023-01-03T08:27:17.593Z,99.90
2023-01-03T08:29:46.809Z,99.90
2023-01-03T08:32:14.401Z,99.90
2023-01-03T08:34:44.383Z,99.90
2023-01-03T08:37:12.819Z,99.90
2023-01-03T08:39:44.543Z,99.90
2023-01-03T08:42:14.886Z,99.90
2023-01-03T08:44:44.875Z,99.90
2023-01-03T08:47:12.536Z,99.90
2023-01-03T08:49:39.617Z,99.90
2023-01-03T08:52:06.333Z,99.90
2023-01-03T08:54:33.093Z,99.90
2023-01-03T08:57:00.018Z,99.90
2023-01-03T08:59:26.913Z,99.90
2023-01-03T09:01:57.415Z,99.90
2023-01-03T09:04:24.312Z,99.90
2023-01-03T09:06:51.059Z,99.90
2023-01-03T09:09:17.896Z,99.90
2023-01-03T09:11:44.773Z,99.90
2023-01-03T09:14:11.568Z,99.90
2023-01-03T09:16:38.555Z,99.90
2023-01-03T09:19:06.604Z,99.90
2023-01-03T09:21:33.372Z,99.90
2023-01-03T09:24:00.119Z,99.90
2023-01-03T09:26:26.891Z,99.90
2023-01-03T09:28:53.596Z,99.90
2023-01-03T09:31:20.276Z,99.90
2023-01-03T09:33:47.011Z,99.90
2023-01-03T09:36:14.097Z,99.90
2023-01-03T09:38:40.909Z,98.80
2023-01-03T09:41:15.075Z,98.10
2023-01-03T09:43:45.115Z,96.80
2023-01-03T09:46:26.100Z,97.00
2023-01-03T09:48:57.722Z,96.30
2023-01-03T09:51:44.618Z,95.10
2023-01-03T09:54:51.534Z,95.00
2023-01-03T09:57:52.566Z,95.80
2023-01-03T10:00:58.928Z,95.60
2023-01-03T10:03:57.152Z,93.30
2023-01-03T10:06:31.881Z,92.10
2023-01-03T10:09:29.568Z,92.20
2023-01-03T10:12:20.397Z,92.60
2023-01-03T10:15:02.280Z,91.10
2023-01-03T10:18:08.260Z,91.10
2023-01-03T10:21:05.020Z,89.90
2023-01-03T10:23:31.972Z,89.70
2023-01-03T10:25:59.167Z,90.70
2023-01-03T10:28:37.772Z,90.20
2023-01-03T10:31:13.999Z,88.30
2023-01-03T10:33:45.805Z,87.60
2023-01-03T10:36:14.220Z,87.60
2023-01-03T10:38:47.858Z,88.50
2023-01-03T10:41:30.575Z,87.10
2023-01-03T10:43:59.685Z,87.40
2023-01-03T10:46:28.063Z,90.10
2023-01-03T10:49:26.564Z,92.90
2023-01-03T10:51:46.957Z,96.00
2023-01-03T10:54:19.588Z,99.90
2023-01-03T10:56:47.637Z,99.90
2023-01-03T10:59:31.871Z,99.90
2023-01-03T11:02:15.239Z,99.90
2023-01-03T11:04:43.771Z,99.90
2023-01-03T11:07:13.777Z,99.90
2023-01-03T11:09:54.010Z,99.90
2023-01-03T11:12:28.979Z,99.90
2023-01-03T11:14:57.998Z,99.90
2023-01-03T11:17:26.831Z,99.90
2023-01-03T11:19:54.264Z,99.90
2023-01-03T11:22:39.785Z,99.90
2023-01-03T11:25:22.196Z,99.90
2023-01-03T11:28:34.399Z,99.90
2023-01-03T11:31:17.701Z,99.90
2023-01-03T11:33:56.676Z,99.90
2023-01-03T11:36:29.648Z,99.90
2023-01-03T11:39:11.014Z,99.90
2023-01-03T11:42:03.173Z,99.90
2023-01-03T11:44:39.142Z,99.90
2023-01-03T11:47:29.790Z,99.90
2023-01-03T11:50:24.675Z,99.90
2023-01-03T11:53:13.336Z,99.90
2023-01-03T11:55:54.054Z,99.90
2023-01-03T11:58:58.333Z,99.90
2023-01-03T12:02:03.114Z,99.90
2023-01-03T12:04:49.269Z,99.90
2023-01-03T12:07:47.002Z,99.90
2023-01-03T12:10:26.476Z,99.90
2023-01-03T12:13:11.604Z,99.90
2023-01-03T12:15:54.000Z,99.90
2023-01-03T12:19:12.579Z,99.90
2023-01-03T12:21:56.677Z,99.90
2023-01-03T12:24:29.096Z,99.90
2023-01-03T12:27:01.002Z,99.90
2023-01-03T12:29:58.950Z,99.90
2023-01-03T12:32:36.060Z,99.90
2023-01-03T12:35:39.702Z,99.90
2023-01-03T12:38:10.257Z,99.90
2023-01-03T12:41:01.263Z,99.90
2023-01-03T12:43:37.455Z,99.90
2023-01-03T12:46:13.672Z,99.90
2023-01-03T12:48:53.455Z,99.90
2023-01-03T12:51:22.607Z,99.90
2023-01-03T12:54:28.314Z,99.90
2023-01-03T12:57:10.151Z,99.90
2023-01-03T12:59:40.171Z,99.90
2023-01-03T13:02:27.319Z,99.90
2023-01-03T13:05:13.196Z,99.90
2023-01-03T13:07:44.791Z,99.90
2023-01-03T13:10:19.828Z,99.90
2023-01-03T13:12:52.955Z,99.90
2023-01-03T13:15:31.392Z,99.90
2023-01-03T13:18:21.180Z,99.90
2023-01-03T13:20:50.437Z,99.90
2023-01-03T13:23:41.356Z,99.90
2023-01-03T13:26:19.316Z,99.90
2023-01-03T13:28:46.292Z,99.90
2023-01-03T13:31:19.161Z,99.90
2023-01-03T13:33:52.209Z,99.90
2023-01-03T13:36:19.487Z,99.90
2023-01-03T13:38:46.383Z,99.90
2023-01-03T13:41:53.792Z,99.90
2023-01-03T13:44:26.773Z,99.90
2023-01-03T13:46:53.717Z,99.90
2023-01-03T13:49:22.893Z,99.90
2023-01-03T13:51:57.817Z,99.90
2023-01-03T13:54:56.983Z,99.90
2023-01-03T13:57:52.204Z,99.90
2023-01-03T14:00:22.603Z,99.90
2023-01-03T14:03:11.669Z,99.90
2023-01-03T14:06:05.857Z,99.90
2023-01-03T14:09:03.052Z,99.90
2023-01-03T14:11:54.702Z,99.90
2023-01-03T14:14:27.498Z,99.90
2023-01-03T14:16:57.644Z,99.90
2023-01-03T14:19:34.302Z,99.90
2023-01-03T14:22:27.254Z,99.90
2023-01-03T14:24:57.151Z,99.90
2023-01-03T14:27:28.332Z,99.90
2023-01-03T14:29:55.922Z,99.90
2023-01-03T14:32:33.972Z,99.90
2023-01-03T14:35:01.859Z,99.90
2023-01-03T14:37:28.713Z,99.90
2023-01-03T14:40:04.436Z,99.90
2023-01-03T14:42:31.253Z,99.90
2023-01-03T14:45:00.122Z,99.90
2023-01-03T14:47:38.237Z,99.90
2023-01-03T14:50:06.952Z,99.90
2023-01-03T14:52:38.194Z,99.90
2023-01-03T14:55:14.360Z,99.90
2023-01-03T14:57:43.638Z,99.90
2023-01-03T15:00:32.497Z,99.90
2023-01-03T15:03:02.691Z,99.90
2023-01-03T15:05:43.495Z,99.90
2023-01-03T15:08:31.446Z,99.90
2023-01-03T15:11:08.713Z,99.90
2023-01-03T15:13:46.758Z,99.90
2023-01-03T15:16:39.836Z,99.90
2023-01-03T15:19:19.848Z,99.90
2023-01-03T15:21:51.820Z,99.90
2023-01-03T15:24:24.803Z,99.90
2023-01-03T15:26:53.377Z,99.90
2023-01-03T15:29:23.798Z,99.90
2023-01-03T15:31:53.502Z,99.90
2023-01-03T15:34:23.792Z,99.90
2023-01-03T15:37:13.139Z,99.90
2023-01-03T15:39:42.339Z,99.90
2023-01-03T15:42:44.706Z,99.90
2023-01-03T15:45:19.293Z,99.90
2023-01-03T15:56:31.985Z,99.90
2023-01-03T15:59:01.501Z,99.90
2023-01-03T16:01:28.368Z,99.90
2023-01-03T16:03:55.176Z,99.90
2023-01-03T16:06:22.149Z,99.90
2023-01-03T16:08:48.949Z,99.90
2023-01-03T16:11:22.958Z,99.90
2023-01-03T16:13:57.104Z,99.90
2023-01-03T16:16:34.728Z,99.90
2023-01-03T16:19:04.266Z,99.90
2023-01-03T16:21:31.372Z,99.90
2023-01-03T16:23:59.180Z,99.90
2023-01-03T16:26:26.211Z,99.90
2023-01-03T16:28:53.040Z,99.90
2023-01-03T16:31:32.068Z,99.90
2023-01-03T16:33:59.400Z,99.90
2023-01-03T16:36:40.023Z,99.90
2023-01-03T16:39:17.196Z,99.90
2023-01-03T16:42:06.631Z,99.90
2023-01-03T16:44:35.286Z,99.90
2023-01-03T16:47:03.427Z,99.90
2023-01-03T16:49:33.726Z,99.90
2023-01-03T16:52:01.470Z,99.90
2023-01-03T16:54:28.355Z,99.90
2023-01-03T16:56:55.027Z,99.90
2023-01-03T16:59:22.844Z,99.90
2023-01-03T17:01:50.464Z,99.90
2023-01-03T17:04:17.375Z,99.90
2023-01-03T17:06:44.688Z,99.90
2023-01-03T17:09:19.016Z,99.90
2023-01-03T17:11:46.675Z,99.90
2023-01-03T17:14:22.167Z,99.90
2023-01-03T17:16:50.036Z,99.90
2023-01-03T17:22:23.605Z,99.90
2023-01-03T17:24:51.639Z,99.90
2023-01-03T17:27:32.084Z,99.90
2023-01-03T17:30:03.569Z,99.90
2023-01-03T17:32:30.914Z,99.90
2023-01-03T17:34:57.826Z,99.90
2023-01-03T17:37:25.629Z,99.90
2023-01-03T17:40:00.617Z,99.90
2023-01-03T17:42:29.051Z,99.90
2023-01-03T17:45:14.794Z,99.90
2023-01-03T17:48:02.472Z,99.90
2023-01-03T17:50:31.856Z,99.90
2023-01-03T17:53:01.071Z,99.90
2023-01-03T17:55:30.347Z,99.90
2023-01-03T17:58:01.388Z,99.90
2023-01-03T18:00:29.099Z,99.90
2023-01-03T18:02:56.364Z,99.90
2023-01-03T18:05:28.459Z,99.90
2023-01-03T18:07:58.743Z,99.90
2023-01-03T18:10:40.240Z,99.90
2023-01-03T18:13:24.466Z,99.90
2023-01-03T18:15:52.383Z,99.90
2023-01-03T18:18:21.883Z,99.90
2023-01-03T18:20:49.095Z,99.90
2023-01-03T18:23:25.117Z,99.90
2023-01-03T18:25:52.834Z,99.90
2023-01-03T18:28:24.541Z,99.90
2023-01-03T18:30:51.755Z,99.90
2023-01-03T18:33:18.651Z,99.90
2023-01-03T18:35:45.608Z,99.90
2023-01-03T18:38:27.939Z,99.90
2023-01-03T18:41:00.744Z,99.90
2023-01-03T18:43:31.883Z,99.90
2023-01-03T18:45:58.752Z,99.90
2023-01-03T18:48:25.729Z,99.90
2023-01-03T18:50:59.023Z,99.90
2023-01-03T18:53:31.083Z,99.90
2023-01-03T18:55:57.982Z,99.90
2023-01-03T18:58:32.042Z,99.90
2023-01-03T19:00:59.184Z,99.90
2023-01-03T19:03:27.378Z,99.90
2023-01-03T19:05:55.390Z,99.90
2023-01-03T19:08:25.640Z,99.90
2023-01-03T19:10:52.716Z,99.90
2023-01-03T19:13:29.769Z,99.90
2023-01-03T19:15:56.986Z,99.90
2023-01-03T19:18:23.874Z,99.90
2023-01-03T19:20:51.173Z,99.90
2023-01-03T19:23:25.253Z,99.90
2023-01-03T19:25:54.644Z,99.90
2023-01-03T19:28:24.868Z,99.90
2023-01-03T19:30:52.183Z,99.90
2023-01-03T19:33:19.487Z,99.90
2023-01-03T19:35:46.767Z,99.90
2023-01-03T19:38:13.710Z,99.90
2023-01-03T19:40:42.952Z,99.90
2023-01-03T19:43:21.763Z,99.90
2023-01-03T19:45:49.029Z,99.90
2023-01-03T19:48:22.004Z,99.90
2023-01-03T19:50:49.681Z,99.90
2023-01-03T19:53:16.645Z,99.90
2023-01-03T19:55:49.119Z,99.90
2023-01-03T19:58:29.644Z,99.90
2023-01-03T20:00:57.127Z,99.90
2023-01-03T20:03:32.102Z,99.90
2023-01-03T20:05:59.755Z,99.90
2023-01-03T20:08:26.867Z,99.90
2023-01-03T20:10:53.984Z,99.90
2023-01-03T20:13:23.817Z,99.90
2023-01-03T20:15:57.327Z,99.90
2023-01-03T20:18:27.758Z,99.90
2023-01-03T20:21:01.854Z,99.90
2023-01-03T20:23:36.213Z,99.90
2023-01-03T20:26:03.993Z,99.90
2023-01-03T20:28:31.243Z,99.90
2023-01-03T20:31:00.306Z,99.90
2023-01-03T20:33:28.465Z,99.90
2023-01-03T20:36:12.693Z,99.90
2023-01-03T20:38:44.846Z,99.90
2023-01-03T20:41:14.408Z,99.90
2023-01-03T20:43:42.435Z,99.90
2023-01-03T20:46:17.083Z,99.90
2023-01-03T20:48:44.505Z,99.90
2023-01-03T20:51:15.085Z,99.90
2023-01-03T20:53:43.218Z,99.90
2023-01-03T20:56:12.856Z,99.90
2023-01-03T20:58:39.907Z,99.90
2023-01-03T21:01:06.971Z,99.90
2023-01-03T21:03:38.022Z,99.90
2023-01-03T21:06:17.700Z,99.90
2023-01-03T21:08:54.104Z,99.90
2023-01-03T21:11:32.355Z,99.90
2023-01-03T21:14:00.509Z,99.90
2023-01-03T21:16:38.934Z,99.90
2023-01-03T21:19:07.818Z,99.90
2023-01-03T21:21:35.334Z,99.90
2023-01-03T21:24:02.587Z,99.90
2023-01-03T21:26:29.548Z,99.90
2023-01-03T21:28:56.970Z,99.90
2023-01-03T21:31:24.765Z,99.90
2023-01-03T21:33:52.426Z,99.90
2023-01-03T21:36:25.259Z,99.90
2023-01-03T21:38:52.200Z,99.90
2023-01-03T21:41:25.096Z,99.90
2023-01-03T21:43:59.433Z,99.90
2023-01-03T21:46:27.889Z,99.90
2023-01-03T21:48:55.842Z,99.90
2023-01-03T21:51:38.468Z,99.90
2023-01-03T21:54:09.369Z,99.90
2023-01-03T21:56:45.844Z,99.90
2023-01-03T21:59:14.679Z,99.90
2023-01-03T22:02:01.742Z,99.90
2023-01-03T22:04:28.678Z,99.90
2023-01-03T22:07:00.816Z,99.90
2023-01-03T22:09:48.445Z,99.90
2023-01-03T22:12:16.145Z,99.90
2023-01-03T22:14:44.019Z,99.90
2023-01-03T22:17:10.955Z,99.90
2023-01-03T22:19:37.782Z,99.90
2023-01-03T22:22:04.963Z,99.90
2023-01-03T22:24:32.033Z,99.90
2023-01-03T22:26:58.933Z,99.90
2023-01-03T22:29:25.725Z,99.90
2023-01-03T22:31:52.751Z,99.90
2023-01-03T22:34:20.313Z,99.90
2023-01-03T22:36:47.239Z,99.90
2023-01-03T22:39:14.329Z,99.90
2023-01-03T22:41:41.029Z,99.90
2023-01-03T22:44:07.911Z,99.90
2023-01-03T22:46:35.047Z,99.90
2023-01-03T22:49:01.830Z,99.90
2023-01-03T22:51:28.748Z,99.90
2023-01-03T22:53:55.564Z,99.90
2023-01-03T22:56:22.413Z,99.90
2023-01-03T22:58:49.240Z,99.90
2023-01-03T23:01:27.252Z,99.90
2023-01-03T23:03:55.586Z,99.90
2023-01-03T23:06:22.590Z,99.90
2023-01-03T23:08:52.546Z,99.90
2023-01-03T23:11:43.086Z,99.90
2023-01-03T23:14:15.313Z,99.90
2023-01-03T23:16:44.446Z,99.90
2023-01-03T23:19:14.576Z,99.90
2023-01-03T23:21:42.287Z,99.90
2023-01-03T23:24:14.313Z,99.90
2023-01-03T23:26:41.378Z,99.90
2023-01-03T23:29:09.651Z,99.90
2023-01-03T23:31:36.724Z,99.90
2023-01-03T23:34:03.693Z,99.90
2023-01-03T23:36:30.735Z,99.90
2023-01-03T23:39:00.948Z,99.90
2023-01-03T23:41:28.003Z,99.90
2023-01-03T23:43:54.994Z,99.90
2023-01-03T23:46:23.055Z,99.90
2023-01-03T23:48:55.454Z,99.90
2023-01-03T23:51:24.056Z,99.90
2023-01-03T23:53:51.861Z,99.90
2023-01-03T23:56:21.327Z,99.90
2023-01-03T23:58:48.567Z,99.90
